ENLE

Ekofisk Oil Platform

Ekofisk, Norway
METAR ENLE 150050Z 22018KT 9999 FEW010 SCT015 BKN020 17/16 Q1011 W18/S3
Observed Flight Rules
Aug-15 @ 00:50 UTC (17 minutes ago) Marginal Visual Flight Rules
Wind Visibility Clouds
220° at 18 knots 10,000+ meters
  • Few at 1,000' AGL
  • Scattered at 1,500' AGL
  • Broken at 2,000' AGL
Temperatures Readings
Current 17°C / 63°F
Dewpoint 16°C / 61°F
Humidity 94%
Altimeter 29.85" Hg
Pressure 1011 hPa
Elevation 3
METAR ENLE 150050Z 22018KT 9999 FEW010 SCT015 BKN020 17/16 Q1011 W18/S3
Observed Flight Rules
Aug-15 @ 00:50 UTC
(17 minutes ago)
MVFR
Wind Visibility
220° at 18 knots 10,000+ meters
Clouds
  • Few at 1,000' AGL
  • Scattered at 1,500' AGL
  • Broken at 2,000' AGL
Temperature Dewpoint
17°C / 63°F 16°C / 61°F
Humidity Altimeter Pressure
94% 29.85" Hg 1011 hPa